sensor_id;sensor_type;location;lat;lon;timestamp;pressure;altitude;pressure_sealevel;temperature;humidity
39823;BME280;25499;53.958;10.970;2024-01-27T07:11:32;102736.09;;;4.86;100.00
39823;BME280;25499;53.958;10.970;2024-01-27T07:14:00;102739.63;;;4.88;100.00
39823;BME280;25499;53.958;10.970;2024-01-27T07:16:27;102737.59;;;4.99;100.00
39823;BME280;25499;53.958;10.970;2024-01-27T07:18:53;102743.50;;;4.96;100.00
39823;BME280;25499;53.958;10.970;2024-01-27T07:21:20;102752.97;;;4.96;100.00
39823;BME280;25499;53.958;10.970;2024-01-27T07:23:47;102756.50;;;4.98;100.00
39823;BME280;25499;53.958;10.970;2024-01-27T07:26:15;102755.94;;;5.03;100.00
39823;BME280;25499;53.958;10.970;2024-01-27T07:28:43;102760.38;;;5.06;100.00
39823;BME280;25499;53.958;10.970;2024-01-27T07:31:10;102757.06;;;5.09;100.00
39823;BME280;25499;53.958;10.970;2024-01-27T07:33:37;102762.13;;;5.07;100.00
39823;BME280;25499;53.958;10.970;2024-01-27T07:36:05;102756.56;;;5.16;100.00
39823;BME280;25499;53.958;10.970;2024-01-27T07:38:32;102752.38;;;5.18;100.00
39823;BME280;25499;53.958;10.970;2024-01-27T07:40:58;102757.66;;;5.21;100.00
39823;BME280;25499;53.958;10.970;2024-01-27T07:43:26;102759.38;;;5.20;100.00
39823;BME280;25499;53.958;10.970;2024-01-27T07:45:55;102772.94;;;5.16;100.00
39823;BME280;25499;53.958;10.970;2024-01-27T07:48:22;102770.03;;;5.27;100.00
39823;BME280;25499;53.958;10.970;2024-01-27T07:50:48;102768.25;;;5.26;100.00
39823;BME280;25499;53.958;10.970;2024-01-27T07:53:16;102778.56;;;5.26;100.00
39823;BME280;25499;53.958;10.970;2024-01-27T07:55:43;102779.16;;;5.20;100.00
39823;BME280;25499;53.958;10.970;2024-01-27T07:58:10;102789.56;;;5.21;100.00
39823;BME280;25499;53.958;10.970;2024-01-27T08:00:37;102791.31;;;5.22;100.00
39823;BME280;25499;53.958;10.970;2024-01-27T08:03:05;102785.19;;;5.20;100.00
39823;BME280;25499;53.958;10.970;2024-01-27T08:05:32;102795.53;;;5.20;100.00
39823;BME280;25499;53.958;10.970;2024-01-27T08:07:58;102796.81;;;5.29;100.00
39823;BME280;25499;53.958;10.970;2024-01-27T08:10:25;102800.84;;;5.23;100.00
39823;BME280;25499;53.958;10.970;2024-01-27T08:12:52;102801.81;;;5.26;100.00
39823;BME280;25499;53.958;10.970;2024-01-27T08:15:19;102794.72;;;5.21;100.00
39823;BME280;25499;53.958;10.970;2024-01-27T08:17:46;102797.78;;;5.31;100.00
39823;BME280;25499;53.958;10.970;2024-01-27T08:20:14;102797.78;;;5.31;100.00
39823;BME280;25499;53.958;10.970;2024-01-27T08:22:41;102802.41;;;5.36;100.00
39823;BME280;25499;53.958;10.970;2024-01-27T08:25:08;102801.81;;;5.42;100.00
39823;BME280;25499;53.958;10.970;2024-01-27T08:27:35;102812.94;;;5.41;100.00
39823;BME280;25499;53.958;10.970;2024-01-27T08:30:02;102808.81;;;5.45;100.00
39823;BME280;25499;53.958;10.970;2024-01-27T08:32:29;102807.78;;;5.41;100.00
39823;BME280;25499;53.958;10.970;2024-01-27T08:34:55;102812.16;;;5.42;100.00
39823;BME280;25499;53.958;10.970;2024-01-27T08:37:24;102815.06;;;5.48;100.00
39823;BME280;25499;53.958;10.970;2024-01-27T08:39:50;102810.19;;;5.38;100.00
39823;BME280;25499;53.958;10.970;2024-01-27T08:42:17;102822.66;;;5.29;100.00
39823;BME280;25499;53.958;10.970;2024-01-27T08:44:44;102822.81;;;5.32;100.00
39823;BME280;25499;53.958;10.970;2024-01-27T08:47:11;102826.84;;;5.27;100.00
39823;BME280;25499;53.958;10.970;2024-01-27T08:49:38;102829.44;;;5.27;100.00
39823;BME280;25499;53.958;10.970;2024-01-27T08:52:05;102830.31;;;5.27;100.00
39823;BME280;25499;53.958;10.970;2024-01-27T08:54:33;102844.94;;;5.27;100.00
39823;BME280;25499;53.958;10.970;2024-01-27T08:57:00;102842.59;;;5.31;100.00
39823;BME280;25499;53.958;10.970;2024-01-27T08:59:27;102848.38;;;5.27;100.00
39823;BME280;25499;53.958;10.970;2024-01-27T09:01:54;102852.75;;;5.28;100.00
39823;BME280;25499;53.958;10.970;2024-01-27T09:04:21;102853.47;;;5.26;100.00
39823;BME280;25499;53.958;10.970;2024-01-27T09:06:48;102861.88;;;5.21;100.00
39823;BME280;25499;53.958;10.970;2024-01-27T09:09:15;102862.03;;;5.25;100.00
39823;BME280;25499;53.958;10.970;2024-01-27T09:11:43;102860.09;;;5.20;100.00
39823;BME280;25499;53.958;10.970;2024-01-27T09:14:11;102871.25;;;5.19;100.00
39823;BME280;25499;53.958;10.970;2024-01-27T09:16:38;102878.81;;;5.16;100.00
39823;BME280;25499;53.958;10.970;2024-01-27T09:19:05;102876.22;;;5.16;100.00
39823;BME280;25499;53.958;10.970;2024-01-27T09:21:32;102876.41;;;5.19;100.00
39823;BME280;25499;53.958;10.970;2024-01-27T09:24:00;102876.53;;;5.22;100.00
39823;BME280;25499;53.958;10.970;2024-01-27T09:26:27;102870.56;;;5.23;100.00
39823;BME280;25499;53.958;10.970;2024-01-27T09:28:56;102874.34;;;5.14;100.00
39823;BME280;25499;53.958;10.970;2024-01-27T09:31:23;102878.16;;;5.20;100.00
39823;BME280;25499;53.958;10.970;2024-01-27T09:33:51;102871.25;;;5.19;100.00
39823;BME280;25499;53.958;10.970;2024-01-27T09:36:19;102874.13;;;5.26;100.00
39823;BME280;25499;53.958;10.970;2024-01-27T09:38:46;102882.34;;;5.18;100.00
39823;BME280;25499;53.958;10.970;2024-01-27T09:41:13;102883.16;;;5.17;100.00
39823;BME280;25499;53.958;10.970;2024-01-27T09:43:43;102878.59;;;5.28;100.00
39823;BME280;25499;53.958;10.970;2024-01-27T09:46:12;102889.06;;;5.31;100.00
39823;BME280;25499;53.958;10.970;2024-01-27T09:48:39;102895.75;;;5.44;100.00
39823;BME280;25499;53.958;10.970;2024-01-27T09:51:07;102908.19;;;5.51;100.00
39823;BME280;25499;53.958;10.970;2024-01-27T09:53:35;102905.16;;;5.58;100.00
39823;BME280;25499;53.958;10.970;2024-01-27T09:56:02;102911.44;;;5.64;100.00
39823;BME280;25499;53.958;10.970;2024-01-27T09:58:30;102913.34;;;5.68;100.00
39823;BME280;25499;53.958;10.970;2024-01-27T10:00:59;102915.59;;;5.78;100.00
39823;BME280;25499;53.958;10.970;2024-01-27T10:03:28;102909.22;;;5.71;100.00
39823;BME280;25499;53.958;10.970;2024-01-27T10:05:56;102911.09;;;5.74;100.00
39823;BME280;25499;53.958;10.970;2024-01-27T10:08:24;102903.19;;;5.54;100.00
39823;BME280;25499;53.958;10.970;2024-01-27T10:10:53;102906.59;;;5.53;100.00
39823;BME280;25499;53.958;10.970;2024-01-27T10:13:20;102920.53;;;5.90;100.00
39823;BME280;25499;53.958;10.970;2024-01-27T10:15:59;102913.50;;;5.87;100.00
39823;BME280;25499;53.958;10.970;2024-01-27T10:18:28;102908.47;;;5.90;100.00
39823;BME280;25499;53.958;10.970;2024-01-27T10:20:55;102920.34;;;6.38;100.00
39823;BME280;25499;53.958;10.970;2024-01-27T10:23:22;102923.03;;;6.75;100.00
39823;BME280;25499;53.958;10.970;2024-01-27T10:25:49;102925.31;;;6.87;100.00
39823;BME280;25499;53.958;10.970;2024-01-27T10:28:16;102898.66;;;6.52;100.00
39823;BME280;25499;53.958;10.970;2024-01-27T10:30:43;102903.06;;;6.72;100.00
39823;BME280;25499;53.958;10.970;2024-01-27T10:33:11;102882.66;;;6.43;100.00
39823;BME280;25499;53.958;10.970;2024-01-27T10:35:40;102899.06;;;6.79;100.00
39823;BME280;25499;53.958;10.970;2024-01-27T10:38:07;102899.66;;;6.91;100.00
39823;BME280;25499;53.958;10.970;2024-01-27T10:40:35;102897.53;;;7.59;100.00
39823;BME280;25499;53.958;10.970;2024-01-27T10:43:04;102882.97;;;7.63;100.00
39823;BME280;25499;53.958;10.970;2024-01-27T10:45:35;102881.28;;;8.25;100.00
39823;BME280;25499;53.958;10.970;2024-01-27T10:48:03;102886.41;;;8.88;100.00
39823;BME280;25499;53.958;10.970;2024-01-27T10:50:30;102867.94;;;10.01;100.00
39823;BME280;25499;53.958;10.970;2024-01-27T10:53:01;102803.72;;;9.49;100.00
39823;BME280;25499;53.958;10.970;2024-01-27T10:55:30;102761.84;;;8.91;100.00
39823;BME280;25499;53.958;10.970;2024-01-27T10:57:58;102732.25;;;8.18;100.00
39823;BME280;25499;53.958;10.970;2024-01-27T11:00:28;102744.69;;;8.05;100.00
39823;BME280;25499;53.958;10.970;2024-01-27T11:02:58;102737.06;;;7.44;100.00
39823;BME280;25499;53.958;10.970;2024-01-27T11:05:27;102742.22;;;7.04;100.00
39823;BME280;25499;53.958;10.970;2024-01-27T11:07:55;102787.13;;;7.43;100.00
39823;BME280;25499;53.958;10.970;2024-01-27T11:10:24;102785.63;;;7.49;100.00
39823;BME280;25499;53.958;10.970;2024-01-27T11:12:52;102815.94;;;8.35;100.00
39823;BME280;25499;53.958;10.970;2024-01-27T11:15:20;102841.47;;;10.71;100.00
39823;BME280;25499;53.958;10.970;2024-01-27T11:17:47;102768.38;;;11.62;100.00
39823;BME280;25499;53.958;10.970;2024-01-27T11:20:15;102695.88;;;13.11;100.00
39823;BME280;25499;53.958;10.970;2024-01-27T11:22:42;102629.47;;;14.22;94.50
39823;BME280;25499;53.958;10.970;2024-01-27T11:25:15;102538.94;;;15.70;86.91
39823;BME280;25499;53.958;10.970;2024-01-27T11:27:45;102403.94;;;15.09;81.42
39823;BME280;25499;53.958;10.970;2024-01-27T11:30:25;102325.38;;;15.74;77.09
39823;BME280;25499;53.958;10.970;2024-01-27T11:32:54;102231.59;;;14.81;74.01
39823;BME280;25499;53.958;10.970;2024-01-27T11:35:21;102208.00;;;14.85;72.78
39823;BME280;25499;53.958;10.970;2024-01-27T11:37:48;102208.91;;;15.00;71.73
39823;BME280;25499;53.958;10.970;2024-01-27T11:40:15;102229.94;;;15.95;69.93
39823;BME280;25499;53.958;10.970;2024-01-27T11:42:53;102133.59;;;16.07;67.13
39823;BME280;25499;53.958;10.970;2024-01-27T11:45:20;102242.66;;;17.14;66.59
39823;BME280;25499;53.958;10.970;2024-01-27T11:47:47;102212.88;;;18.13;63.83
39823;BME280;25499;53.958;10.970;2024-01-27T11:50:16;102067.53;;;16.68;62.33
39823;BME280;25499;53.958;10.970;2024-01-27T11:52:44;101981.38;;;15.79;61.78
39823;BME280;25499;53.958;10.970;2024-01-27T11:55:11;102019.47;;;16.52;61.37
39823;BME280;25499;53.958;10.970;2024-01-27T11:57:38;102089.16;;;17.10;61.49
39823;BME280;25499;53.958;10.970;2024-01-27T12:00:07;101966.75;;;16.66;59.51
39823;BME280;25499;53.958;10.970;2024-01-27T12:02:34;101977.78;;;15.97;60.40
39823;BME280;25499;53.958;10.970;2024-01-27T12:05:03;101944.56;;;15.85;59.71
39823;BME280;25499;53.958;10.970;2024-01-27T12:07:30;102016.28;;;15.99;60.52
39823;BME280;25499;53.958;10.970;2024-01-27T12:09:57;102040.63;;;16.34;60.90
39823;BME280;25499;53.958;10.970;2024-01-27T12:12:24;101959.69;;;15.23;60.86
39823;BME280;25499;53.958;10.970;2024-01-27T12:14:52;102073.00;;;16.36;60.88
39823;BME280;25499;53.958;10.970;2024-01-27T12:17:20;102001.25;;;16.26;59.99
39823;BME280;25499;53.958;10.970;2024-01-27T12:19:50;101954.25;;;15.71;60.03
39823;BME280;25499;53.958;10.970;2024-01-27T12:22:22;101906.47;;;14.84;60.48
39823;BME280;25499;53.958;10.970;2024-01-27T12:24:49;102065.34;;;15.96;61.68
39823;BME280;25499;53.958;10.970;2024-01-27T12:27:16;101996.22;;;15.86;59.61
39823;BME280;25499;53.958;10.970;2024-01-27T12:29:43;101861.97;;;14.21;59.92
39823;BME280;25499;53.958;10.970;2024-01-27T12:32:10;101902.78;;;13.31;61.68
39823;BME280;25499;53.958;10.970;2024-01-27T12:34:41;101925.69;;;11.55;64.74
39823;BME280;25499;53.958;10.970;2024-01-27T12:37:08;102053.81;;;11.16;67.03
39823;BME280;25499;53.958;10.970;2024-01-27T12:39:35;102265.34;;;13.19;67.78
39823;BME280;25499;53.958;10.970;2024-01-27T12:42:02;102268.97;;;14.44;66.05
39823;BME280;25499;53.958;10.970;2024-01-27T12:44:29;102165.81;;;14.24;64.08
39823;BME280;25499;53.958;10.970;2024-01-27T12:46:56;102174.75;;;14.78;63.23
39823;BME280;25499;53.958;10.970;2024-01-27T12:49:23;102151.19;;;14.98;62.63
39823;BME280;25499;53.958;10.970;2024-01-27T12:51:51;102097.84;;;14.67;62.55
39823;BME280;25499;53.958;10.970;2024-01-27T12:54:18;102076.03;;;14.65;62.44
39823;BME280;25499;53.958;10.970;2024-01-27T12:56:45;102109.81;;;16.37;60.47
39823;BME280;25499;53.958;10.970;2024-01-27T12:59:12;102080.28;;;18.06;57.39
39823;BME280;25499;53.958;10.970;2024-01-27T13:01:39;101966.44;;;17.76;55.74
39823;BME280;25499;53.958;10.970;2024-01-27T13:04:06;102011.81;;;18.60;54.54
39823;BME280;25499;53.958;10.970;2024-01-27T13:19:30;101662.47;;;15.07;53.23
39823;BME280;25499;53.958;10.970;2024-01-27T13:21:57;101751.06;;;14.18;55.60
39823;BME280;25499;53.958;10.970;2024-01-27T13:24:23;101787.44;;;12.67;58.67
39823;BME280;25499;53.958;10.970;2024-01-27T13:26:51;101890.06;;;11.54;61.13
39823;BME280;25499;53.958;10.970;2024-01-27T13:29:18;101990.06;;;10.42;64.47
39823;BME280;25499;53.958;10.970;2024-01-27T13:31:45;102091.63;;;10.01;66.54
39823;BME280;25499;53.958;10.970;2024-01-27T13:34:12;102199.00;;;9.94;67.94
39823;BME280;25499;53.958;10.970;2024-01-27T13:36:41;102276.66;;;9.78;69.17
39823;BME280;25499;53.958;10.970;2024-01-27T13:39:08;102338.88;;;9.70;70.62
39823;BME280;25499;53.958;10.970;2024-01-27T13:41:35;102395.84;;;9.61;71.64
39823;BME280;25499;53.958;10.970;2024-01-27T13:44:03;102434.63;;;9.53;72.54
39823;BME280;25499;53.958;10.970;2024-01-27T13:46:31;102488.41;;;9.55;73.58
39823;BME280;25499;53.958;10.970;2024-01-27T13:48:58;102517.84;;;9.53;74.03
39823;BME280;25499;53.958;10.970;2024-01-27T13:51:25;102532.25;;;9.42;74.75
39823;BME280;25499;53.958;10.970;2024-01-27T13:53:54;102561.03;;;9.21;75.74
39823;BME280;25499;53.958;10.970;2024-01-27T13:56:20;102588.91;;;9.25;76.33
39823;BME280;25499;53.958;10.970;2024-01-27T13:58:47;102598.53;;;9.02;77.08
39823;BME280;25499;53.958;10.970;2024-01-27T14:01:14;102613.44;;;8.82;77.71
39823;BME280;25499;53.958;10.970;2024-01-27T14:03:41;102629.22;;;8.63;78.12
39823;BME280;25499;53.958;10.970;2024-01-27T14:06:08;102670.78;;;8.63;79.32
39823;BME280;25499;53.958;10.970;2024-01-27T14:08:38;102693.91;;;8.56;79.66
39823;BME280;25499;53.958;10.970;2024-01-27T14:11:06;102686.19;;;8.35;79.78
39823;BME280;25499;53.958;10.970;2024-01-27T14:13:50;102685.66;;;7.99;80.62
39823;BME280;25499;53.958;10.970;2024-01-27T14:16:19;102725.41;;;7.98;81.76
39823;BME280;25499;53.958;10.970;2024-01-27T14:18:46;102749.69;;;7.79;82.48
39823;BME280;25499;53.958;10.970;2024-01-27T14:21:13;102769.44;;;7.75;83.31
39823;BME280;25499;53.958;10.970;2024-01-27T14:23:40;102784.97;;;7.75;84.36
39823;BME280;25499;53.958;10.970;2024-01-27T14:26:08;102788.25;;;7.50;84.85
39823;BME280;25499;53.958;10.970;2024-01-27T14:28:40;102807.50;;;7.55;85.54
39823;BME280;25499;53.958;10.970;2024-01-27T14:31:12;102814.38;;;7.55;86.15
39823;BME280;25499;53.958;10.970;2024-01-27T14:33:43;102811.97;;;7.19;87.07
39823;BME280;25499;53.958;10.970;2024-01-27T14:36:10;102838.03;;;7.04;87.94
39823;BME280;25499;53.958;10.970;2024-01-27T14:38:37;102855.38;;;7.05;88.93
39823;BME280;25499;53.958;10.970;2024-01-27T14:41:07;102876.81;;;7.02;89.85
39823;BME280;25499;53.958;10.970;2024-01-27T14:43:35;102896.03;;;7.07;90.36
39823;BME280;25499;53.958;10.970;2024-01-27T14:46:03;102900.19;;;7.04;91.20
39823;BME280;25499;53.958;10.970;2024-01-27T14:48:30;102904.22;;;6.97;92.25
39823;BME280;25499;53.958;10.970;2024-01-27T14:50:57;102914.41;;;6.94;93.00
39823;BME280;25499;53.958;10.970;2024-01-27T14:53:24;102911.91;;;6.96;93.53
39823;BME280;25499;53.958;10.970;2024-01-27T14:55:51;102920.97;;;6.86;94.32
39823;BME280;25499;53.958;10.970;2024-01-27T14:58:21;102930.72;;;6.91;94.98
39823;BME280;25499;53.958;10.970;2024-01-27T15:01:07;102932.69;;;6.97;95.55
39823;BME280;25499;53.958;10.970;2024-01-27T15:03:34;102941.66;;;7.04;95.64
39823;BME280;25499;53.958;10.970;2024-01-27T15:06:02;102948.28;;;7.17;96.10
39823;BME280;25499;53.958;10.970;2024-01-27T15:08:29;102924.47;;;7.06;96.23
39823;BME280;25499;53.958;10.970;2024-01-27T15:10:56;102928.84;;;7.07;96.35
39823;BME280;25499;53.958;10.970;2024-01-27T15:13:24;102925.06;;;7.00;96.69
39823;BME280;25499;53.958;10.970;2024-01-27T15:15:51;102923.31;;;6.99;96.28
39823;BME280;25499;53.958;10.970;2024-01-27T15:18:18;102925.53;;;6.91;96.07
39823;BME280;25499;53.958;10.970;2024-01-27T15:20:48;102926.41;;;6.92;96.08
39823;BME280;25499;53.958;10.970;2024-01-27T15:23:15;102935.00;;;6.91;96.48
39823;BME280;25499;53.958;10.970;2024-01-27T15:25:42;102928.50;;;6.81;96.90
39823;BME280;25499;53.958;10.970;2024-01-27T15:28:10;102931.91;;;6.80;97.04
39823;BME280;25499;53.958;10.970;2024-01-27T15:30:39;102943.97;;;6.80;97.65
39823;BME280;25499;53.958;10.970;2024-01-27T15:33:07;102950.53;;;6.73;98.30
39823;BME280;25499;53.958;10.970;2024-01-27T15:35:35;102968.44;;;6.68;98.86
39823;BME280;25499;53.958;10.970;2024-01-27T15:38:02;102973.75;;;6.71;99.12
39823;BME280;25499;53.958;10.970;2024-01-27T15:40:29;102981.28;;;6.67;99.50
39823;BME280;25499;53.958;10.970;2024-01-27T15:42:56;102981.91;;;6.61;100.00
39823;BME280;25499;53.958;10.970;2024-01-27T15:45:23;102979.16;;;6.58;100.00
39823;BME280;25499;53.958;10.970;2024-01-27T15:47:51;102984.16;;;6.55;100.00
39823;BME280;25499;53.958;10.970;2024-01-27T15:50:21;102984.84;;;6.51;100.00
39823;BME280;25499;53.958;10.970;2024-01-27T15:53:11;102984.41;;;6.42;100.00
39823;BME280;25499;53.958;10.970;2024-01-27T15:55:38;102981.41;;;6.34;100.00
39823;BME280;25499;53.958;10.970;2024-01-27T15:58:16;102991.44;;;6.28;100.00
39823;BME280;25499;53.958;10.970;2024-01-27T16:01:02;103002.38;;;6.22;100.00
39823;BME280;25499;53.958;10.970;2024-01-27T16:06:51;103010.13;;;6.22;100.00
39823;BME280;25499;53.958;10.970;2024-01-27T16:09:51;103009.88;;;6.18;100.00
39823;BME280;25499;53.958;10.970;2024-01-27T16:15:57;103023.63;;;6.16;100.00
39823;BME280;25499;53.958;10.970;2024-01-27T16:21:45;103028.06;;;6.19;100.00
39823;BME280;25499;53.958;10.970;2024-01-27T16:24:13;103036.81;;;6.21;100.00
39823;BME280;25499;53.958;10.970;2024-01-27T16:26:40;103042.19;;;6.26;100.00
39823;BME280;25499;53.958;10.970;2024-01-27T16:29:08;103051.91;;;6.30;100.00
39823;BME280;25499;53.958;10.970;2024-01-27T16:31:34;103045.91;;;6.31;100.00
39823;BME280;25499;53.958;10.970;2024-01-27T16:34:01;103042.28;;;6.27;100.00
39823;BME280;25499;53.958;10.970;2024-01-27T16:36:28;103045.91;;;6.31;100.00
39823;BME280;25499;53.958;10.970;2024-01-27T16:38:55;103047.28;;;6.24;100.00
39823;BME280;25499;53.958;10.970;2024-01-27T16:41:23;103044.72;;;6.24;100.00
39823;BME280;25499;53.958;10.970;2024-01-27T16:43:50;103043.03;;;6.25;100.00
39823;BME280;25499;53.958;10.970;2024-01-27T16:46:18;103041.81;;;6.18;100.00
39823;BME280;25499;53.958;10.970;2024-01-27T16:48:45;103050.38;;;6.17;100.00
39823;BME280;25499;53.958;10.970;2024-01-27T16:51:12;103054.00;;;6.21;100.00
39823;BME280;25499;53.958;10.970;2024-01-27T16:53:39;103052.47;;;6.24;100.00
39823;BME280;25499;53.958;10.970;2024-01-27T16:56:06;103045.38;;;6.20;100.00
39823;BME280;25499;53.958;10.970;2024-01-27T16:58:34;103062.97;;;6.27;100.00
39823;BME280;25499;53.958;10.970;2024-01-27T17:01:01;103064.69;;;6.27;100.00
39823;BME280;25499;53.958;10.970;2024-01-27T17:03:28;103060.63;;;6.32;100.00
39823;BME280;25499;53.958;10.970;2024-01-27T17:05:55;103050.88;;;6.26;100.00
39823;BME280;25499;53.958;10.970;2024-01-27T17:08:24;103053.50;;;6.28;100.00
39823;BME280;25499;53.958;10.970;2024-01-27T17:10:52;103055.22;;;6.27;100.00
39823;BME280;25499;53.958;10.970;2024-01-27T17:13:19;103065.41;;;6.24;100.00
39823;BME280;25499;53.958;10.970;2024-01-27T17:15:48;103058.38;;;6.22;100.00
39823;BME280;25499;53.958;10.970;2024-01-27T17:18:15;103051.25;;;6.18;100.00
39823;BME280;25499;53.958;10.970;2024-01-27T17:20:42;103058.88;;;6.14;100.00
39823;BME280;25499;53.958;10.970;2024-01-27T17:23:09;103059.94;;;6.18;100.00
39823;BME280;25499;53.958;10.970;2024-01-27T17:25:35;103068.22;;;6.12;100.00
39823;BME280;25499;53.958;10.970;2024-01-27T17:28:03;103083.66;;;6.11;100.00
39823;BME280;25499;53.958;10.970;2024-01-27T17:30:31;103080.59;;;6.02;100.00
39823;BME280;25499;53.958;10.970;2024-01-27T17:33:13;103082.47;;;6.04;100.00
39823;BME280;25499;53.958;10.970;2024-01-27T17:35:41;103094.41;;;6.02;100.00
39823;BME280;25499;53.958;10.970;2024-01-27T17:38:08;103090.94;;;6.02;100.00
39823;BME280;25499;53.958;10.970;2024-01-27T17:40:34;103101.13;;;5.98;100.00
39823;BME280;25499;53.958;10.970;2024-01-27T17:43:01;103104.66;;;6.01;100.00
39823;BME280;25499;53.958;10.970;2024-01-27T17:45:28;103103.88;;;6.02;100.00
39823;BME280;25499;53.958;10.970;2024-01-27T17:47:55;103105.00;;;6.07;100.00
39823;BME280;25499;53.958;10.970;2024-01-27T17:50:24;103105.19;;;6.10;100.00
39823;BME280;25499;53.958;10.970;2024-01-27T17:52:51;103103.88;;;6.02;100.00
39823;BME280;25499;53.958;10.970;2024-01-27T17:55:18;103100.59;;;6.04;100.00
39823;BME280;25499;53.958;10.970;2024-01-27T17:57:45;103102.16;;;6.02;100.00
39823;BME280;25499;53.958;10.970;2024-01-27T18:00:19;103099.41;;;5.99;100.00
39823;BME280;25499;53.958;10.970;2024-01-27T18:02:46;103107.69;;;5.93;100.00
39823;BME280;25499;53.958;10.970;2024-01-27T18:05:13;103107.63;;;5.92;100.00
39823;BME280;25499;53.958;10.970;2024-01-27T18:07:41;103113.53;;;5.89;100.00
39823;BME280;25499;53.958;10.970;2024-01-27T18:10:08;103115.94;;;6.01;100.00
39823;BME280;25499;53.958;10.970;2024-01-27T18:12:35;103113.75;;;5.94;100.00
39823;BME280;25499;53.958;10.970;2024-01-27T18:15:01;103123.03;;;5.90;100.00
39823;BME280;25499;53.958;10.970;2024-01-27T18:17:28;103119.50;;;5.88;100.00
39823;BME280;25499;53.958;10.970;2024-01-27T18:19:55;103122.56;;;5.81;100.00
39823;BME280;25499;53.958;10.970;2024-01-27T18:22:22;103122.72;;;5.84;100.00
39823;BME280;25499;53.958;10.970;2024-01-27T18:24:51;103124.97;;;5.78;100.00
39823;BME280;25499;53.958;10.970;2024-01-27T18:27:19;103138.78;;;5.78;100.00
39823;BME280;25499;53.958;10.970;2024-01-27T18:29:46;103134.34;;;5.76;100.00
39823;BME280;25499;53.958;10.970;2024-01-27T18:32:13;103134.50;;;5.79;100.00
39823;BME280;25499;53.958;10.970;2024-01-27T18:34:40;103139.81;;;5.82;100.00
39823;BME280;25499;53.958;10.970;2024-01-27T18:37:07;103136.94;;;5.76;100.00
39823;BME280;25499;53.958;10.970;2024-01-27T18:39:39;103138.44;;;5.72;100.00
39823;BME280;25499;53.958;10.970;2024-01-27T18:42:07;103143.16;;;5.79;100.00
39823;BME280;25499;53.958;10.970;2024-01-27T18:44:34;103134.06;;;5.71;100.00
39823;BME280;25499;53.958;10.970;2024-01-27T18:47:06;103133.19;;;5.71;100.00
39823;BME280;25499;53.958;10.970;2024-01-27T18:49:33;103130.44;;;5.68;100.00
39823;BME280;25499;53.958;10.970;2024-01-27T18:52:05;103136.75;;;5.73;100.00
39823;BME280;25499;53.958;10.970;2024-01-27T18:54:37;103142.78;;;5.73;100.00
39823;BME280;25499;53.958;10.970;2024-01-27T18:57:04;103141.13;;;5.74;100.00
39823;BME280;25499;53.958;10.970;2024-01-27T18:59:34;103133.50;;;5.77;100.00
39823;BME280;25499;53.958;10.970;2024-01-27T19:02:00;103136.28;;;5.80;100.00
39823;BME280;25499;53.958;10.970;2024-01-27T19:04:27;103133.09;;;5.69;100.00
39823;BME280;25499;53.958;10.970;2024-01-27T19:06:54;103140.94;;;5.71;100.00
39823;BME280;25499;53.958;10.970;2024-01-27T19:09:21;103145.06;;;5.67;100.00
39823;BME280;25499;53.958;10.970;2024-01-27T19:11:48;103142.47;;;5.67;100.00
39823;BME280;25499;53.958;10.970;2024-01-27T19:14:15;103148.06;;;5.75;100.00
39823;BME280;25499;53.958;10.970;2024-01-27T19:16:43;103145.84;;;5.66;100.00
39823;BME280;25499;53.958;10.970;2024-01-27T19:19:09;103152.81;;;5.67;100.00
39823;BME280;25499;53.958;10.970;2024-01-27T19:21:36;103152.53;;;5.63;100.00
39823;BME280;25499;53.958;10.970;2024-01-27T19:24:04;103156.44;;;5.71;100.00
39823;BME280;25499;53.958;10.970;2024-01-27T19:26:31;103159.31;;;5.60;100.00
39823;BME280;25499;53.958;10.970;2024-01-27T19:28:57;103158.28;;;5.57;100.00
39823;BME280;25499;53.958;10.970;2024-01-27T19:31:24;103155.59;;;5.55;100.00
39823;BME280;25499;53.958;10.970;2024-01-27T19:33:53;103148.53;;;5.53;100.00
39823;BME280;25499;53.958;10.970;2024-01-27T19:36:19;103158.78;;;5.51;100.00
39823;BME280;25499;53.958;10.970;2024-01-27T19:38:46;103159.34;;;5.46;100.00
39823;BME280;25499;53.958;10.970;2024-01-27T19:41:13;103161.75;;;5.42;100.00
39823;BME280;25499;53.958;10.970;2024-01-27T19:43:41;103158.66;;;5.33;100.00
39823;BME280;25499;53.958;10.970;2024-01-27T19:46:08;103160.78;;;5.26;100.00
39823;BME280;25499;53.958;10.970;2024-01-27T19:48:35;103160.94;;;5.14;100.00
39823;BME280;25499;53.958;10.970;2024-01-27T19:51:04;103170.84;;;5.06;100.00
39823;BME280;25499;53.958;10.970;2024-01-27T19:53:30;103168.09;;;5.03;100.00
39823;BME280;25499;53.958;10.970;2024-01-27T19:55:57;103168.53;;;4.96;100.00
39823;BME280;25499;53.958;10.970;2024-01-27T19:58:24;103174.28;;;4.92;100.00
39823;BME280;25499;53.958;10.970;2024-01-27T20:00:51;103174.91;;;4.88;100.00
39823;BME280;25499;53.958;10.970;2024-01-27T20:03:17;103176.94;;;4.78;100.00
39823;BME280;25499;53.958;10.970;2024-01-27T20:05:44;103188.16;;;4.79;100.00
39823;BME280;25499;53.958;10.970;2024-01-27T20:08:12;103188.84;;;4.76;100.00
39823;BME280;25499;53.958;10.970;2024-01-27T20:10:39;103197.81;;;4.68;100.00
39823;BME280;25499;53.958;10.970;2024-01-27T20:13:06;103201.63;;;4.60;100.00
39823;BME280;25499;53.958;10.970;2024-01-27T20:15:33;103199.84;;;4.59;100.00
39823;BME280;25499;53.958;10.970;2024-01-27T20:17:59;103211.06;;;4.59;100.00